sensor_id;sensor_type;location;lat;lon;timestamp;temperature;humidity
10722;DHT22;5412;59.450;18.124;2022-10-16T00:01:30;14.00;99.90
10722;DHT22;5412;59.450;18.124;2022-10-16T00:03:57;14.00;99.90
10722;DHT22;5412;59.450;18.124;2022-10-16T00:06:25;13.90;99.90
10722;DHT22;5412;59.450;18.124;2022-10-16T00:08:51;13.80;99.90
10722;DHT22;5412;59.450;18.124;2022-10-16T00:11:21;13.90;99.90
10722;DHT22;5412;59.450;18.124;2022-10-16T00:13:48;13.90;99.90
10722;DHT22;5412;59.450;18.124;2022-10-16T00:16:15;13.90;99.90
10722;DHT22;5412;59.450;18.124;2022-10-16T00:18:41;13.90;99.90
10722;DHT22;5412;59.450;18.124;2022-10-16T00:21:16;13.90;99.90
10722;DHT22;5412;59.450;18.124;2022-10-16T00:23:42;14.00;99.90
10722;DHT22;5412;59.450;18.124;2022-10-16T00:26:11;14.10;99.90
10722;DHT22;5412;59.450;18.124;2022-10-16T00:28:38;14.00;99.90
10722;DHT22;5412;59.450;18.124;2022-10-16T00:31:06;14.00;99.90
10722;DHT22;5412;59.450;18.124;2022-10-16T00:33:32;14.00;99.90
10722;DHT22;5412;59.450;18.124;2022-10-16T00:35:59;14.00;99.90
10722;DHT22;5412;59.450;18.124;2022-10-16T00:38:25;13.90;99.90
10722;DHT22;5412;59.450;18.124;2022-10-16T00:40:51;13.80;99.90
10722;DHT22;5412;59.450;18.124;2022-10-16T00:46:15;13.80;99.90
10722;DHT22;5412;59.450;18.124;2022-10-16T00:48:42;13.90;99.90
10722;DHT22;5412;59.450;18.124;2022-10-16T00:51:10;13.90;99.90
10722;DHT22;5412;59.450;18.124;2022-10-16T00:53:36;13.90;99.90
10722;DHT22;5412;59.450;18.124;2022-10-16T00:56:02;13.80;99.90
10722;DHT22;5412;59.450;18.124;2022-10-16T00:58:28;13.80;99.90
10722;DHT22;5412;59.450;18.124;2022-10-16T01:00:54;13.80;99.90
10722;DHT22;5412;59.450;18.124;2022-10-16T01:03:35;13.70;99.90
10722;DHT22;5412;59.450;18.124;2022-10-16T01:09:02;13.70;99.90
10722;DHT22;5412;59.450;18.124;2022-10-16T01:14:02;13.60;99.90
10722;DHT22;5412;59.450;18.124;2022-10-16T01:16:43;13.60;99.90
10722;DHT22;5412;59.450;18.124;2022-10-16T01:19:36;13.50;99.90
10722;DHT22;5412;59.450;18.124;2022-10-16T01:22:08;13.50;99.90
10722;DHT22;5412;59.450;18.124;2022-10-16T01:24:40;13.50;99.90
10722;DHT22;5412;59.450;18.124;2022-10-16T01:27:07;13.50;99.90
10722;DHT22;5412;59.450;18.124;2022-10-16T01:32:33;13.60;99.90
10722;DHT22;5412;59.450;18.124;2022-10-16T01:35:05;13.60;99.90
10722;DHT22;5412;59.450;18.124;2022-10-16T01:37:38;13.60;99.90
10722;DHT22;5412;59.450;18.124;2022-10-16T01:40:10;13.50;99.90
10722;DHT22;5412;59.450;18.124;2022-10-16T01:42:42;13.50;99.90
10722;DHT22;5412;59.450;18.124;2022-10-16T01:45:12;13.60;99.90
10722;DHT22;5412;59.450;18.124;2022-10-16T01:47:39;13.60;99.90
10722;DHT22;5412;59.450;18.124;2022-10-16T01:50:07;13.50;99.90
10722;DHT22;5412;59.450;18.124;2022-10-16T01:52:37;13.50;99.90
10722;DHT22;5412;59.450;18.124;2022-10-16T01:55:07;13.60;99.90
10722;DHT22;5412;59.450;18.124;2022-10-16T01:57:36;13.50;99.90
10722;DHT22;5412;59.450;18.124;2022-10-16T02:00:08;13.60;99.90
10722;DHT22;5412;59.450;18.124;2022-10-16T02:02:34;13.60;99.90
10722;DHT22;5412;59.450;18.124;2022-10-16T02:05:23;13.50;99.90
10722;DHT22;5412;59.450;18.124;2022-10-16T02:07:50;13.50;99.90
10722;DHT22;5412;59.450;18.124;2022-10-16T02:10:15;13.50;99.90
10722;DHT22;5412;59.450;18.124;2022-10-16T02:12:45;13.50;99.90
10722;DHT22;5412;59.450;18.124;2022-10-16T02:15:13;13.50;99.90
10722;DHT22;5412;59.450;18.124;2022-10-16T02:17:39;13.50;99.90
10722;DHT22;5412;59.450;18.124;2022-10-16T02:20:05;13.60;99.90
10722;DHT22;5412;59.450;18.124;2022-10-16T02:22:35;13.60;99.90
10722;DHT22;5412;59.450;18.124;2022-10-16T02:25:34;13.60;99.90
10722;DHT22;5412;59.450;18.124;2022-10-16T02:30:51;13.60;99.90
10722;DHT22;5412;59.450;18.124;2022-10-16T02:33:22;13.60;99.90
10722;DHT22;5412;59.450;18.124;2022-10-16T02:35:49;13.60;99.90
10722;DHT22;5412;59.450;18.124;2022-10-16T02:38:17;13.60;99.90
10722;DHT22;5412;59.450;18.124;2022-10-16T02:40:44;13.60;99.90
10722;DHT22;5412;59.450;18.124;2022-10-16T02:43:10;13.70;99.90
10722;DHT22;5412;59.450;18.124;2022-10-16T02:45:36;13.70;99.90
10722;DHT22;5412;59.450;18.124;2022-10-16T02:48:02;13.70;99.90
10722;DHT22;5412;59.450;18.124;2022-10-16T02:50:28;13.70;99.90
10722;DHT22;5412;59.450;18.124;2022-10-16T02:52:53;13.70;99.90
10722;DHT22;5412;59.450;18.124;2022-10-16T02:55:19;13.70;99.90
10722;DHT22;5412;59.450;18.124;2022-10-16T02:57:45;13.70;99.90
10722;DHT22;5412;59.450;18.124;2022-10-16T03:00:14;13.70;99.90
10722;DHT22;5412;59.450;18.124;2022-10-16T03:02:39;13.70;99.90
10722;DHT22;5412;59.450;18.124;2022-10-16T03:05:06;13.60;99.90
10722;DHT22;5412;59.450;18.124;2022-10-16T03:07:31;13.60;99.90
10722;DHT22;5412;59.450;18.124;2022-10-16T03:09:57;13.50;99.90
10722;DHT22;5412;59.450;18.124;2022-10-16T03:12:29;13.50;99.90
10722;DHT22;5412;59.450;18.124;2022-10-16T03:14:58;13.50;99.90
10722;DHT22;5412;59.450;18.124;2022-10-16T03:17:24;13.50;99.90
10722;DHT22;5412;59.450;18.124;2022-10-16T03:19:50;13.60;99.90
10722;DHT22;5412;59.450;18.124;2022-10-16T03:22:16;13.60;99.90
10722;DHT22;5412;59.450;18.124;2022-10-16T03:24:41;13.50;99.90
10722;DHT22;5412;59.450;18.124;2022-10-16T03:27:07;13.60;99.90
10722;DHT22;5412;59.450;18.124;2022-10-16T03:29:33;13.60;99.90
10722;DHT22;5412;59.450;18.124;2022-10-16T03:31:59;13.60;99.90
10722;DHT22;5412;59.450;18.124;2022-10-16T03:34:25;13.50;99.90
10722;DHT22;5412;59.450;18.124;2022-10-16T03:36:51;13.50;99.90
10722;DHT22;5412;59.450;18.124;2022-10-16T03:39:18;13.50;99.90
10722;DHT22;5412;59.450;18.124;2022-10-16T03:41:44;13.50;99.90
10722;DHT22;5412;59.450;18.124;2022-10-16T03:44:12;13.50;99.90
10722;DHT22;5412;59.450;18.124;2022-10-16T03:46:37;13.50;99.90
10722;DHT22;5412;59.450;18.124;2022-10-16T03:49:03;13.40;99.90
10722;DHT22;5412;59.450;18.124;2022-10-16T03:51:29;13.40;99.90
10722;DHT22;5412;59.450;18.124;2022-10-16T03:53:54;13.50;99.90
10722;DHT22;5412;59.450;18.124;2022-10-16T03:56:20;13.50;99.90
10722;DHT22;5412;59.450;18.124;2022-10-16T03:58:46;13.50;99.90
10722;DHT22;5412;59.450;18.124;2022-10-16T04:01:11;13.50;99.90
10722;DHT22;5412;59.450;18.124;2022-10-16T04:03:37;13.50;99.90
10722;DHT22;5412;59.450;18.124;2022-10-16T04:06:03;13.40;99.90
10722;DHT22;5412;59.450;18.124;2022-10-16T04:08:29;13.40;99.90
10722;DHT22;5412;59.450;18.124;2022-10-16T04:10:54;13.40;99.90
10722;DHT22;5412;59.450;18.124;2022-10-16T04:13:20;13.40;99.90
10722;DHT22;5412;59.450;18.124;2022-10-16T04:15:46;13.40;99.90
10722;DHT22;5412;59.450;18.124;2022-10-16T04:18:12;13.40;99.90
10722;DHT22;5412;59.450;18.124;2022-10-16T04:20:37;13.40;99.90
10722;DHT22;5412;59.450;18.124;2022-10-16T04:23:03;13.40;99.90
10722;DHT22;5412;59.450;18.124;2022-10-16T04:25:29;13.40;99.90
10722;DHT22;5412;59.450;18.124;2022-10-16T04:27:56;13.40;99.90
10722;DHT22;5412;59.450;18.124;2022-10-16T04:30:22;13.30;99.90
10722;DHT22;5412;59.450;18.124;2022-10-16T04:32:52;13.40;99.90
10722;DHT22;5412;59.450;18.124;2022-10-16T04:35:19;13.40;99.90
10722;DHT22;5412;59.450;18.124;2022-10-16T04:37:45;13.40;99.90
10722;DHT22;5412;59.450;18.124;2022-10-16T04:40:11;14.30;99.90
10722;DHT22;5412;59.450;18.124;2022-10-16T04:42:37;13.30;99.90
10722;DHT22;5412;59.450;18.124;2022-10-16T04:45:03;13.30;99.90
10722;DHT22;5412;59.450;18.124;2022-10-16T04:47:29;13.30;99.90
10722;DHT22;5412;59.450;18.124;2022-10-16T04:49:55;13.20;99.90
10722;DHT22;5412;59.450;18.124;2022-10-16T04:52:21;13.20;99.90
10722;DHT22;5412;59.450;18.124;2022-10-16T04:54:49;13.30;99.90
10722;DHT22;5412;59.450;18.124;2022-10-16T04:57:16;13.20;99.90
10722;DHT22;5412;59.450;18.124;2022-10-16T04:59:42;13.20;99.90
10722;DHT22;5412;59.450;18.124;2022-10-16T05:02:08;13.20;99.90
10722;DHT22;5412;59.450;18.124;2022-10-16T05:04:33;13.10;99.90
10722;DHT22;5412;59.450;18.124;2022-10-16T05:06:59;13.10;99.90
10722;DHT22;5412;59.450;18.124;2022-10-16T05:09:25;13.10;99.90
10722;DHT22;5412;59.450;18.124;2022-10-16T05:11:51;13.00;99.90
10722;DHT22;5412;59.450;18.124;2022-10-16T05:14:16;12.90;99.90
10722;DHT22;5412;59.450;18.124;2022-10-16T05:16:42;13.00;99.90
10722;DHT22;5412;59.450;18.124;2022-10-16T05:19:08;12.90;99.90
10722;DHT22;5412;59.450;18.124;2022-10-16T05:21:34;12.90;99.90
10722;DHT22;5412;59.450;18.124;2022-10-16T05:23:59;12.90;99.90
10722;DHT22;5412;59.450;18.124;2022-10-16T05:26:25;12.90;99.90
10722;DHT22;5412;59.450;18.124;2022-10-16T05:28:51;13.30;99.90
10722;DHT22;5412;59.450;18.124;2022-10-16T05:31:16;13.00;99.90
10722;DHT22;5412;59.450;18.124;2022-10-16T05:33:42;12.90;99.90
10722;DHT22;5412;59.450;18.124;2022-10-16T05:36:10;12.90;99.90
10722;DHT22;5412;59.450;18.124;2022-10-16T05:38:36;13.00;99.90
10722;DHT22;5412;59.450;18.124;2022-10-16T05:41:03;13.00;99.90
10722;DHT22;5412;59.450;18.124;2022-10-16T05:43:30;13.00;99.90
10722;DHT22;5412;59.450;18.124;2022-10-16T05:45:58;13.00;99.90
10722;DHT22;5412;59.450;18.124;2022-10-16T05:48:25;13.00;99.90
10722;DHT22;5412;59.450;18.124;2022-10-16T05:53:23;13.00;99.90
10722;DHT22;5412;59.450;18.124;2022-10-16T05:55:57;13.00;99.90
10722;DHT22;5412;59.450;18.124;2022-10-16T05:58:24;13.00;99.90
10722;DHT22;5412;59.450;18.124;2022-10-16T06:00:57;12.90;99.90
10722;DHT22;5412;59.450;18.124;2022-10-16T06:03:23;12.90;99.90
10722;DHT22;5412;59.450;18.124;2022-10-16T06:05:49;12.90;99.90
10722;DHT22;5412;59.450;18.124;2022-10-16T06:08:15;12.90;99.90
10722;DHT22;5412;59.450;18.124;2022-10-16T06:10:41;13.00;99.90
10722;DHT22;5412;59.450;18.124;2022-10-16T06:13:07;12.90;99.90
10722;DHT22;5412;59.450;18.124;2022-10-16T06:15:32;12.90;99.90
10722;DHT22;5412;59.450;18.124;2022-10-16T06:17:58;13.00;99.90
10722;DHT22;5412;59.450;18.124;2022-10-16T06:20:24;13.00;99.90
10722;DHT22;5412;59.450;18.124;2022-10-16T06:22:49;13.00;99.90
10722;DHT22;5412;59.450;18.124;2022-10-16T06:25:15;13.00;99.90
10722;DHT22;5412;59.450;18.124;2022-10-16T06:27:41;13.00;99.90
10722;DHT22;5412;59.450;18.124;2022-10-16T06:30:07;13.10;99.90
10722;DHT22;5412;59.450;18.124;2022-10-16T06:32:33;13.10;99.90
10722;DHT22;5412;59.450;18.124;2022-10-16T06:34:58;13.20;99.90
10722;DHT22;5412;59.450;18.124;2022-10-16T06:37:24;13.20;99.90
10722;DHT22;5412;59.450;18.124;2022-10-16T06:39:50;13.30;99.90
10722;DHT22;5412;59.450;18.124;2022-10-16T06:42:19;13.20;99.90
10722;DHT22;5412;59.450;18.124;2022-10-16T06:44:45;13.20;99.90
10722;DHT22;5412;59.450;18.124;2022-10-16T06:47:11;13.30;99.90
10722;DHT22;5412;59.450;18.124;2022-10-16T06:49:36;13.30;99.90
10722;DHT22;5412;59.450;18.124;2022-10-16T06:52:02;13.30;99.90
10722;DHT22;5412;59.450;18.124;2022-10-16T06:54:28;13.30;99.90
10722;DHT22;5412;59.450;18.124;2022-10-16T06:56:54;13.30;99.90
10722;DHT22;5412;59.450;18.124;2022-10-16T06:59:21;13.40;99.90
10722;DHT22;5412;59.450;18.124;2022-10-16T07:01:47;13.40;99.90
10722;DHT22;5412;59.450;18.124;2022-10-16T07:04:13;13.50;99.90
10722;DHT22;5412;59.450;18.124;2022-10-16T07:06:39;13.50;99.90
10722;DHT22;5412;59.450;18.124;2022-10-16T07:09:07;13.40;99.90
10722;DHT22;5412;59.450;18.124;2022-10-16T07:11:34;13.50;99.90
10722;DHT22;5412;59.450;18.124;2022-10-16T07:14:01;13.60;99.90
10722;DHT22;5412;59.450;18.124;2022-10-16T07:16:28;13.60;99.90
10722;DHT22;5412;59.450;18.124;2022-10-16T07:18:56;13.70;99.90
10722;DHT22;5412;59.450;18.124;2022-10-16T07:21:25;13.70;99.90
10722;DHT22;5412;59.450;18.124;2022-10-16T07:23:56;13.70;99.90
10722;DHT22;5412;59.450;18.124;2022-10-16T07:26:23;13.70;99.90
10722;DHT22;5412;59.450;18.124;2022-10-16T07:28:50;13.70;99.90
10722;DHT22;5412;59.450;18.124;2022-10-16T07:31:17;13.60;99.90
10722;DHT22;5412;59.450;18.124;2022-10-16T07:33:44;13.60;99.90
10722;DHT22;5412;59.450;18.124;2022-10-16T07:36:11;12.60;99.90
10722;DHT22;5412;59.450;18.124;2022-10-16T07:38:37;13.70;99.90
10722;DHT22;5412;59.450;18.124;2022-10-16T07:41:05;13.80;99.90
10722;DHT22;5412;59.450;18.124;2022-10-16T07:43:32;13.70;99.90
10722;DHT22;5412;59.450;18.124;2022-10-16T07:45:59;13.70;99.90
10722;DHT22;5412;59.450;18.124;2022-10-16T07:48:28;13.70;99.90
10722;DHT22;5412;59.450;18.124;2022-10-16T07:51:01;13.80;99.90
10722;DHT22;5412;59.450;18.124;2022-10-16T07:53:27;13.90;99.90
10722;DHT22;5412;59.450;18.124;2022-10-16T07:56:00;13.90;99.90
10722;DHT22;5412;59.450;18.124;2022-10-16T07:58:28;13.90;99.90
10722;DHT22;5412;59.450;18.124;2022-10-16T08:00:54;13.70;99.90
10722;DHT22;5412;59.450;18.124;2022-10-16T08:03:20;13.70;99.90
10722;DHT22;5412;59.450;18.124;2022-10-16T08:05:45;13.70;99.90
10722;DHT22;5412;59.450;18.124;2022-10-16T08:08:15;13.70;99.90
10722;DHT22;5412;59.450;18.124;2022-10-16T08:10:41;13.80;99.90
10722;DHT22;5412;59.450;18.124;2022-10-16T08:13:07;13.90;99.90
10722;DHT22;5412;59.450;18.124;2022-10-16T08:15:33;13.90;99.90
10722;DHT22;5412;59.450;18.124;2022-10-16T08:18:03;13.80;99.90
10722;DHT22;5412;59.450;18.124;2022-10-16T08:20:30;13.80;99.90
10722;DHT22;5412;59.450;18.124;2022-10-16T08:22:56;13.80;99.90
10722;DHT22;5412;59.450;18.124;2022-10-16T08:25:23;13.80;99.90
10722;DHT22;5412;59.450;18.124;2022-10-16T08:27:49;13.90;99.90
10722;DHT22;5412;59.450;18.124;2022-10-16T08:30:16;13.80;99.90
10722;DHT22;5412;59.450;18.124;2022-10-16T08:32:42;13.80;99.90
10722;DHT22;5412;59.450;18.124;2022-10-16T08:35:11;13.80;99.90
10722;DHT22;5412;59.450;18.124;2022-10-16T08:37:38;13.80;99.90
10722;DHT22;5412;59.450;18.124;2022-10-16T08:40:06;13.90;99.90
10722;DHT22;5412;59.450;18.124;2022-10-16T08:43:15;14.00;99.90
10722;DHT22;5412;59.450;18.124;2022-10-16T08:50:48;14.00;99.90
10722;DHT22;5412;59.450;18.124;2022-10-16T08:53:22;14.10;99.90
10722;DHT22;5412;59.450;18.124;2022-10-16T08:55:51;14.00;99.90
10722;DHT22;5412;59.450;18.124;2022-10-16T08:58:20;13.90;99.90
10722;DHT22;5412;59.450;18.124;2022-10-16T09:00:53;14.00;99.90
10722;DHT22;5412;59.450;18.124;2022-10-16T09:12:21;14.10;99.90
10722;DHT22;5412;59.450;18.124;2022-10-16T09:20:22;14.10;99.90
10722;DHT22;5412;59.450;18.124;2022-10-16T09:25:43;14.30;99.90
10722;DHT22;5412;59.450;18.124;2022-10-16T09:28:09;14.40;99.90
10722;DHT22;5412;59.450;18.124;2022-10-16T09:30:35;14.50;99.90
10722;DHT22;5412;59.450;18.124;2022-10-16T09:33:02;14.50;99.90
10722;DHT22;5412;59.450;18.124;2022-10-16T09:35:43;14.30;99.90
10722;DHT22;5412;59.450;18.124;2022-10-16T09:38:24;14.30;99.90
10722;DHT22;5412;59.450;18.124;2022-10-16T09:40:51;14.50;99.90
10722;DHT22;5412;59.450;18.124;2022-10-16T09:43:25;14.50;99.90
10722;DHT22;5412;59.450;18.124;2022-10-16T09:45:56;14.60;99.90
10722;DHT22;5412;59.450;18.124;2022-10-16T09:48:22;14.40;99.90
10722;DHT22;5412;59.450;18.124;2022-10-16T09:51:03;14.20;99.90
10722;DHT22;5412;59.450;18.124;2022-10-16T09:53:44;14.20;99.90
10722;DHT22;5412;59.450;18.124;2022-10-16T09:56:21;14.20;99.90
10722;DHT22;5412;59.450;18.124;2022-10-16T09:58:52;14.00;99.90
10722;DHT22;5412;59.450;18.124;2022-10-16T10:01:19;14.10;99.90
10722;DHT22;5412;59.450;18.124;2022-10-16T10:03:45;14.20;99.90
10722;DHT22;5412;59.450;18.124;2022-10-16T10:06:22;14.30;99.90
10722;DHT22;5412;59.450;18.124;2022-10-16T10:09:00;14.40;99.90
10722;DHT22;5412;59.450;18.124;2022-10-16T10:14:20;14.60;99.90
10722;DHT22;5412;59.450;18.124;2022-10-16T10:16:47;14.40;99.90
10722;DHT22;5412;59.450;18.124;2022-10-16T10:19:16;14.50;99.90
10722;DHT22;5412;59.450;18.124;2022-10-16T10:21:42;14.50;99.90
10722;DHT22;5412;59.450;18.124;2022-10-16T10:24:25;14.60;99.90
10722;DHT22;5412;59.450;18.124;2022-10-16T10:26:59;14.60;99.90
10722;DHT22;5412;59.450;18.124;2022-10-16T10:32:28;14.60;99.90
10722;DHT22;5412;59.450;18.124;2022-10-16T10:35:22;14.60;99.90
10722;DHT22;5412;59.450;18.124;2022-10-16T10:38:05;14.70;99.90
10722;DHT22;5412;59.450;18.124;2022-10-16T10:46:09;15.00;99.90
10722;DHT22;5412;59.450;18.124;2022-10-16T10:57:22;14.70;99.90
10722;DHT22;5412;59.450;18.124;2022-10-16T11:07:36;14.80;99.90
10722;DHT22;5412;59.450;18.124;2022-10-16T11:10:14;14.70;99.90
10722;DHT22;5412;59.450;18.124;2022-10-16T11:12:51;14.90;99.90
10722;DHT22;5412;59.450;18.124;2022-10-16T11:20:47;15.40;99.90
10722;DHT22;5412;59.450;18.124;2022-10-16T11:23:30;15.40;99.90
10722;DHT22;5412;59.450;18.124;2022-10-16T11:26:04;15.50;99.90
10722;DHT22;5412;59.450;18.124;2022-10-16T11:28:39;15.40;99.90
10722;DHT22;5412;59.450;18.124;2022-10-16T11:31:13;15.10;99.90
10722;DHT22;5412;59.450;18.124;2022-10-16T11:33:46;15.00;99.90
10722;DHT22;5412;59.450;18.124;2022-10-16T11:36:27;15.00;99.90
10722;DHT22;5412;59.450;18.124;2022-10-16T11:47:33;15.60;99.90
10722;DHT22;5412;59.450;18.124;2022-10-16T11:50:25;15.50;99.90
10722;DHT22;5412;59.450;18.124;2022-10-16T11:52:53;15.60;99.90
10722;DHT22;5412;59.450;18.124;2022-10-16T11:55:24;15.60;99.90
10722;DHT22;5412;59.450;18.124;2022-10-16T11:57:56;15.60;99.90
10722;DHT22;5412;59.450;18.124;2022-10-16T12:00:39;15.70;99.90
10722;DHT22;5412;59.450;18.124;2022-10-16T12:08:34;15.60;99.90
10722;DHT22;5412;59.450;18.124;2022-10-16T12:11:53;15.50;99.90
10722;DHT22;5412;59.450;18.124;2022-10-16T12:19:17;15.70;99.90
10722;DHT22;5412;59.450;18.124;2022-10-16T12:21:44;15.60;99.90
10722;DHT22;5412;59.450;18.124;2022-10-16T12:24:41;15.60;99.90
10722;DHT22;5412;59.450;18.124;2022-10-16T12:27:31;15.60;99.90
10722;DHT22;5412;59.450;18.124;2022-10-16T12:30:02;15.40;99.90
10722;DHT22;5412;59.450;18.124;2022-10-16T12:32:37;15.40;99.90
10722;DHT22;5412;59.450;18.124;2022-10-16T12:35:06;15.40;99.90
10722;DHT22;5412;59.450;18.124;2022-10-16T12:37:42;15.30;99.90
10722;DHT22;5412;59.450;18.124;2022-10-16T12:40:22;15.30;99.90
10722;DHT22;5412;59.450;18.124;2022-10-16T12:42:49;15.20;99.90
10722;DHT22;5412;59.450;18.124;2022-10-16T12:45:27;15.20;99.90
10722;DHT22;5412;59.450;18.124;2022-10-16T12:47:54;15.30;99.90
10722;DHT22;5412;59.450;18.124;2022-10-16T12:50:38;15.20;99.90
10722;DHT22;5412;59.450;18.124;2022-10-16T12:53:24;15.30;99.90
10722;DHT22;5412;59.450;18.124;2022-10-16T12:56:22;15.20;99.90
10722;DHT22;5412;59.450;18.124;2022-10-16T13:01:38;15.20;99.90
10722;DHT22;5412;59.450;18.124;2022-10-16T13:04:46;15.10;99.90
10722;DHT22;5412;59.450;18.124;2022-10-16T13:10:46;15.10;99.90
10722;DHT22;5412;59.450;18.124;2022-10-16T13:16:05;14.90;99.90
10722;DHT22;5412;59.450;18.124;2022-10-16T13:29:14;15.10;99.90
10722;DHT22;5412;59.450;18.124;2022-10-16T13:31:40;15.40;99.90
10722;DHT22;5412;59.450;18.124;2022-10-16T13:34:14;16.30;99.90
10722;DHT22;5412;59.450;18.124;2022-10-16T13:36:49;17.00;99.90
10722;DHT22;5412;59.450;18.124;2022-10-16T13:39:26;17.90;99.90
10722;DHT22;5412;59.450;18.124;2022-10-16T13:42:10;16.90;99.90
10722;DHT22;5412;59.450;18.124;2022-10-16T13:44:43;16.50;99.90
10722;DHT22;5412;59.450;18.124;2022-10-16T13:47:29;16.10;99.90
10722;DHT22;5412;59.450;18.124;2022-10-16T13:50:09;16.00;99.90
10722;DHT22;5412;59.450;18.124;2022-10-16T13:52:36;15.80;99.90
10722;DHT22;5412;59.450;18.124;2022-10-16T13:55:13;15.50;99.90
10722;DHT22;5412;59.450;18.124;2022-10-16T13:57:40;15.40;99.90
10722;DHT22;5412;59.450;18.124;2022-10-16T14:00:26;15.20;99.90
10722;DHT22;5412;59.450;18.124;2022-10-16T14:03:07;15.10;99.90
10722;DHT22;5412;59.450;18.124;2022-10-16T14:05:47;14.90;99.90
10722;DHT22;5412;59.450;18.124;2022-10-16T14:08:13;15.00;99.90
10722;DHT22;5412;59.450;18.124;2022-10-16T14:10:39;15.00;99.90
10722;DHT22;5412;59.450;18.124;2022-10-16T14:13:06;14.90;99.90
10722;DHT22;5412;59.450;18.124;2022-10-16T14:15:34;14.80;99.90
10722;DHT22;5412;59.450;18.124;2022-10-16T14:18:01;14.80;99.90
10722;DHT22;5412;59.450;18.124;2022-10-16T14:20:29;14.70;99.90
10722;DHT22;5412;59.450;18.124;2022-10-16T14:23:23;14.40;99.90
10722;DHT22;5412;59.450;18.124;2022-10-16T14:25:53;13.90;99.90
10722;DHT22;5412;59.450;18.124;2022-10-16T14:28:23;13.80;99.90
10722;DHT22;5412;59.450;18.124;2022-10-16T14:33:38;13.60;99.90
10722;DHT22;5412;59.450;18.124;2022-10-16T14:38:32;13.40;99.90
10722;DHT22;5412;59.450;18.124;2022-10-16T14:40:59;13.40;99.90
10722;DHT22;5412;59.450;18.124;2022-10-16T14:43:32;13.40;99.90
10722;DHT22;5412;59.450;18.124;2022-10-16T14:45:59;13.40;99.90
10722;DHT22;5412;59.450;18.124;2022-10-16T14:48:26;13.30;99.90
10722;DHT22;5412;59.450;18.124;2022-10-16T14:50:52;13.30;99.90
10722;DHT22;5412;59.450;18.124;2022-10-16T14:53:18;13.30;99.90
10722;DHT22;5412;59.450;18.124;2022-10-16T14:55:44;13.40;99.90
10722;DHT22;5412;59.450;18.124;2022-10-16T14:58:15;13.40;99.90
10722;DHT22;5412;59.450;18.124;2022-10-16T15:00:41;13.40;99.90
10722;DHT22;5412;59.450;18.124;2022-10-16T15:03:07;13.50;99.90
10722;DHT22;5412;59.450;18.124;2022-10-16T15:05:33;13.50;99.90
10722;DHT22;5412;59.450;18.124;2022-10-16T15:07:59;13.50;99.90
10722;DHT22;5412;59.450;18.124;2022-10-16T15:10:27;13.40;99.90
10722;DHT22;5412;59.450;18.124;2022-10-16T15:12:54;13.50;99.90
10722;DHT22;5412;59.450;18.124;2022-10-16T15:17:49;12.40;99.90
10722;DHT22;5412;59.450;18.124;2022-10-16T15:20:18;13.60;99.90
10722;DHT22;5412;59.450;18.124;2022-10-16T15:22:44;13.60;99.90
10722;DHT22;5412;59.450;18.124;2022-10-16T15:27:50;13.60;99.90
10722;DHT22;5412;59.450;18.124;2022-10-16T15:30:16;13.60;99.90
10722;DHT22;5412;59.450;18.124;2022-10-16T15:32:42;13.50;99.90
10722;DHT22;5412;59.450;18.124;2022-10-16T15:35:11;13.00;99.90
10722;DHT22;5412;59.450;18.124;2022-10-16T15:37:36;12.40;99.90
10722;DHT22;5412;59.450;18.124;2022-10-16T15:40:03;12.30;99.90
10722;DHT22;5412;59.450;18.124;2022-10-16T15:42:28;12.00;99.90
10722;DHT22;5412;59.450;18.124;2022-10-16T15:44:54;11.90;99.90
10722;DHT22;5412;59.450;18.124;2022-10-16T15:47:20;11.80;99.90
10722;DHT22;5412;59.450;18.124;2022-10-16T15:49:45;11.90;99.90
10722;DHT22;5412;59.450;18.124;2022-10-16T15:52:12;11.90;99.90
10722;DHT22;5412;59.450;18.124;2022-10-16T15:54:37;11.90;99.90
10722;DHT22;5412;59.450;18.124;2022-10-16T15:57:03;11.80;99.90
10722;DHT22;5412;59.450;18.124;2022-10-16T15:59:29;11.70;99.90
10722;DHT22;5412;59.450;18.124;2022-10-16T16:01:55;11.70;99.90
10722;DHT22;5412;59.450;18.124;2022-10-16T16:04:21;11.70;99.90
10722;DHT22;5412;59.450;18.124;2022-10-16T16:06:47;11.70;99.90
10722;DHT22;5412;59.450;18.124;2022-10-16T16:09:14;11.60;99.90
10722;DHT22;5412;59.450;18.124;2022-10-16T16:11:39;11.50;99.90
10722;DHT22;5412;59.450;18.124;2022-10-16T16:14:06;11.50;99.90
10722;DHT22;5412;59.450;18.124;2022-10-16T16:16:32;11.60;99.90
10722;DHT22;5412;59.450;18.124;2022-10-16T16:19:04;11.70;99.90
10722;DHT22;5412;59.450;18.124;2022-10-16T16:21:31;11.50;99.90
10722;DHT22;5412;59.450;18.124;2022-10-16T16:23:57;11.40;99.90
10722;DHT22;5412;59.450;18.124;2022-10-16T16:26:29;11.40;99.90
10722;DHT22;5412;59.450;18.124;2022-10-16T16:29:00;11.40;99.90
10722;DHT22;5412;59.450;18.124;2022-10-16T16:31:27;10.80;99.90
10722;DHT22;5412;59.450;18.124;2022-10-16T16:33:54;11.30;99.90
10722;DHT22;5412;59.450;18.124;2022-10-16T16:36:20;11.30;99.90
10722;DHT22;5412;59.450;18.124;2022-10-16T16:38:46;11.00;99.90
10722;DHT22;5412;59.450;18.124;2022-10-16T16:41:20;11.00;99.90
10722;DHT22;5412;59.450;18.124;2022-10-16T16:43:46;11.00;99.90
10722;DHT22;5412;59.450;18.124;2022-10-16T16:46:14;10.90;99.90
10722;DHT22;5412;59.450;18.124;2022-10-16T16:48:40;10.90;99.90
10722;DHT22;5412;59.450;18.124;2022-10-16T16:51:08;11.00;99.90
10722;DHT22;5412;59.450;18.124;2022-10-16T16:53:35;11.00;99.90
10722;DHT22;5412;59.450;18.124;2022-10-16T16:56:03;10.90;99.90
10722;DHT22;5412;59.450;18.124;2022-10-16T16:58:28;10.80;99.90
10722;DHT22;5412;59.450;18.124;2022-10-16T17:00:54;10.70;99.90
10722;DHT22;5412;59.450;18.124;2022-10-16T17:03:20;10.70;99.90
10722;DHT22;5412;59.450;18.124;2022-10-16T17:05:57;10.70;99.90
10722;DHT22;5412;59.450;18.124;2022-10-16T17:08:22;10.70;99.90
10722;DHT22;5412;59.450;18.124;2022-10-16T17:10:48;10.60;99.90
10722;DHT22;5412;59.450;18.124;2022-10-16T17:13:18;10.50;99.90
10722;DHT22;5412;59.450;18.124;2022-10-16T17:15:48;10.50;99.90
10722;DHT22;5412;59.450;18.124;2022-10-16T17:18:14;10.40;99.90
10722;DHT22;5412;59.450;18.124;2022-10-16T17:20:39;10.60;99.90
10722;DHT22;5412;59.450;18.124;2022-10-16T17:23:06;10.50;99.90
10722;DHT22;5412;59.450;18.124;2022-10-16T17:25:31;10.50;99.90
10722;DHT22;5412;59.450;18.124;2022-10-16T17:28:00;10.50;99.90
10722;DHT22;5412;59.450;18.124;2022-10-16T17:30:26;10.50;99.90
10722;DHT22;5412;59.450;18.124;2022-10-16T17:32:51;10.40;99.90
10722;DHT22;5412;59.450;18.124;2022-10-16T17:35:17;10.40;99.90
10722;DHT22;5412;59.450;18.124;2022-10-16T17:37:42;10.40;99.90
10722;DHT22;5412;59.450;18.124;2022-10-16T17:40:09;10.40;99.90
10722;DHT22;5412;59.450;18.124;2022-10-16T17:42:35;10.30;99.90
10722;DHT22;5412;59.450;18.124;2022-10-16T17:45:01;10.30;99.90